createdAt,value
2022-11-13T00:00:42.234Z,11.63
2022-11-13T00:03:10.057Z,12.88
2022-11-13T00:05:37.793Z,12.68
2022-11-13T00:08:05.801Z,11.63
2022-11-13T00:10:33.519Z,12.20
2022-11-13T00:13:01.388Z,12.35
2022-11-13T00:15:29.137Z,12.43
2022-11-13T00:18:02.076Z,11.55
2022-11-13T00:20:29.759Z,12.43
2022-11-13T00:22:57.577Z,12.65
2022-11-13T00:25:25.318Z,12.40
2022-11-13T00:27:53.002Z,11.73
2022-11-13T00:30:20.698Z,10.63
2022-11-13T00:32:48.339Z,12.25
2022-11-13T00:35:17.464Z,11.90
2022-11-13T00:37:45.180Z,11.07
2022-11-13T00:40:13.125Z,10.70
2022-11-13T00:42:40.787Z,10.95
2022-11-13T00:45:09.485Z,10.52
2022-11-13T00:47:37.145Z,10.90
2022-11-13T00:50:05.432Z,9.30
2022-11-13T00:52:34.466Z,11.05
2022-11-13T00:55:02.158Z,9.77
2022-11-13T00:57:29.844Z,9.63
2022-11-13T00:59:57.567Z,10.90
2022-11-13T01:02:25.209Z,10.10
2022-11-13T01:04:52.942Z,9.93
2022-11-13T01:07:20.710Z,10.98
2022-11-13T01:09:52.852Z,9.93
2022-11-13T01:12:20.510Z,9.95
2022-11-13T01:14:48.306Z,10.32
2022-11-13T01:17:15.943Z,9.73
2022-11-13T01:19:43.765Z,8.60
2022-11-13T01:22:11.423Z,9.98
2022-11-13T01:24:39.124Z,10.88
2022-11-13T01:27:08.259Z,9.30
2022-11-13T01:29:35.954Z,9.73
2022-11-13T01:32:03.691Z,9.40
2022-11-13T01:34:31.335Z,9.32
2022-11-13T01:36:58.985Z,9.75
2022-11-13T01:39:26.814Z,8.73
2022-11-13T01:41:54.703Z,9.43
2022-11-13T01:44:23.772Z,9.20
2022-11-13T01:46:55.276Z,8.95
2022-11-13T01:49:31.501Z,9.18
2022-11-13T01:52:01.183Z,8.95
2022-11-13T01:54:32.871Z,9.05
2022-11-13T01:57:01.257Z,9.30
2022-11-13T01:59:33.240Z,8.68
2022-11-13T02:02:01.784Z,9.20
2022-11-13T02:04:30.500Z,8.77
2022-11-13T02:07:01.255Z,9.52
2022-11-13T02:09:34.578Z,8.77
2022-11-13T02:12:02.866Z,8.90
2022-11-13T02:14:32.335Z,8.93
2022-11-13T02:17:03.524Z,8.75
2022-11-13T02:19:33.936Z,8.75
2022-11-13T02:22:11.795Z,8.10
2022-11-13T02:24:45.371Z,8.15
2022-11-13T02:27:21.185Z,8.20
2022-11-13T02:29:48.898Z,8.65
2022-11-13T02:32:16.634Z,7.90
2022-11-13T02:34:44.266Z,9.75
2022-11-13T02:37:12.110Z,8.25
2022-11-13T02:39:41.538Z,9.10
2022-11-13T02:42:09.254Z,8.63
2022-11-13T02:44:36.905Z,8.50
2022-11-13T02:47:04.584Z,8.60
2022-11-13T02:49:32.328Z,9.23
2022-11-13T02:52:00.003Z,8.40
2022-11-13T02:54:27.713Z,8.88
2022-11-13T02:56:56.793Z,7.70
2022-11-13T02:59:24.439Z,8.43
2022-11-13T03:01:52.113Z,8.95
2022-11-13T03:04:19.817Z,8.75
2022-11-13T03:06:47.726Z,8.15
2022-11-13T03:09:15.562Z,8.43
2022-11-13T03:11:44.068Z,7.70
2022-11-13T03:14:13.354Z,8.30
2022-11-13T03:16:41.028Z,8.75
2022-11-13T03:19:08.806Z,8.73
2022-11-13T03:21:36.529Z,8.27
2022-11-13T03:24:04.373Z,8.07
2022-11-13T03:26:32.225Z,8.63
2022-11-13T03:28:59.950Z,8.63
2022-11-13T03:31:28.977Z,8.15
2022-11-13T03:33:56.678Z,7.78
2022-11-13T03:36:24.335Z,8.13
2022-11-13T03:38:52.094Z,8.52
2022-11-13T03:41:19.766Z,7.85
2022-11-13T03:43:47.422Z,9.10
2022-11-13T03:46:15.143Z,9.20
2022-11-13T03:48:44.171Z,8.45
2022-11-13T03:51:11.838Z,8.20
2022-11-13T03:53:39.499Z,8.05
2022-11-13T03:56:07.631Z,8.40
2022-11-13T03:58:38.565Z,8.65
2022-11-13T04:01:07.927Z,10.82
2022-11-13T04:03:35.659Z,10.73
2022-11-13T04:06:04.887Z,11.40
2022-11-13T04:08:32.578Z,10.93
2022-11-13T04:11:07.239Z,10.60
2022-11-13T04:13:34.923Z,10.00
2022-11-13T04:16:02.584Z,11.27
2022-11-13T04:18:30.578Z,11.80
2022-11-13T04:21:01.000Z,11.13
2022-11-13T04:23:30.294Z,11.35
2022-11-13T04:25:58.711Z,10.13
2022-11-13T04:28:26.654Z,12.15
2022-11-13T04:30:55.588Z,11.85
2022-11-13T04:33:23.855Z,12.65
2022-11-13T04:35:51.581Z,12.18
2022-11-13T04:38:19.287Z,12.50
2022-11-13T04:40:50.428Z,13.05
2022-11-13T04:43:17.241Z,11.75
2022-11-13T04:45:44.899Z,12.70
2022-11-13T04:48:12.668Z,12.43
2022-11-13T04:50:40.354Z,12.55
2022-11-13T04:53:07.994Z,11.60
2022-11-13T04:55:35.611Z,12.07
2022-11-13T04:58:04.676Z,12.75
2022-11-13T05:00:32.362Z,14.45
2022-11-13T05:03:00.007Z,13.32
2022-11-13T05:05:27.669Z,12.68
2022-11-13T05:07:55.316Z,15.57
2022-11-13T05:10:23.007Z,15.80
2022-11-13T05:12:50.657Z,14.68
2022-11-13T05:15:19.660Z,16.60
2022-11-13T05:17:49.794Z,15.02
2022-11-13T05:20:18.118Z,15.00
2022-11-13T05:22:45.730Z,14.60
2022-11-13T05:25:13.389Z,16.50
2022-11-13T05:27:41.246Z,16.17
2022-11-13T05:30:10.164Z,17.55
2022-11-13T05:32:39.209Z,14.75
2022-11-13T05:35:07.186Z,17.83
2022-11-13T05:37:34.825Z,15.23
2022-11-13T05:40:02.472Z,19.00
2022-11-13T05:42:30.088Z,15.77
2022-11-13T05:44:57.760Z,16.17
2022-11-13T05:47:25.452Z,17.55
2022-11-13T05:49:54.547Z,15.35
2022-11-13T05:52:22.208Z,14.50
2022-11-13T05:54:49.843Z,14.55
2022-11-13T05:57:17.671Z,14.27
2022-11-13T05:59:45.400Z,13.18
2022-11-13T06:02:13.178Z,13.10
2022-11-13T06:04:40.861Z,12.15
2022-11-13T06:07:09.915Z,13.35
2022-11-13T06:09:37.618Z,11.75
2022-11-13T06:12:05.822Z,10.82
2022-11-13T06:14:33.484Z,11.00
2022-11-13T06:17:01.166Z,11.80
2022-11-13T06:19:29.078Z,11.57
2022-11-13T06:21:56.733Z,10.85
2022-11-13T06:24:25.807Z,11.68
2022-11-13T06:26:53.722Z,11.50
2022-11-13T06:29:21.552Z,12.35
2022-11-13T06:31:49.211Z,10.95
2022-11-13T06:34:16.925Z,9.82
2022-11-13T06:36:44.621Z,11.23
2022-11-13T06:39:13.406Z,9.88
2022-11-13T06:41:42.565Z,11.43
2022-11-13T06:44:10.494Z,10.23
2022-11-13T06:46:38.197Z,10.80
2022-11-13T06:49:05.886Z,10.93
2022-11-13T06:51:33.938Z,10.75
2022-11-13T06:54:01.681Z,12.23
2022-11-13T06:56:29.425Z,11.13
2022-11-13T06:58:58.570Z,12.40
2022-11-13T07:01:27.688Z,12.73
2022-11-13T07:03:55.772Z,12.57
2022-11-13T07:06:25.054Z,13.38
2022-11-13T07:08:53.025Z,12.35
2022-11-13T07:11:22.881Z,12.40
2022-11-13T07:13:50.902Z,11.80
2022-11-13T07:16:20.718Z,11.35
2022-11-13T07:18:52.230Z,11.57
2022-11-13T07:21:21.481Z,11.25
2022-11-13T07:23:49.721Z,13.60
2022-11-13T07:26:17.976Z,12.43
2022-11-13T07:28:46.365Z,12.20
2022-11-13T07:31:15.471Z,12.20
2022-11-13T07:33:45.286Z,11.75
2022-11-13T07:36:13.004Z,11.18
2022-11-13T07:38:40.737Z,10.43
2022-11-13T07:41:08.692Z,11.40
2022-11-13T07:43:36.743Z,12.40
2022-11-13T07:46:04.834Z,12.00
2022-11-13T07:48:32.935Z,11.27
2022-11-13T07:51:02.962Z,12.25
2022-11-13T07:53:31.040Z,11.18
2022-11-13T07:56:02.194Z,10.65
2022-11-13T07:58:30.464Z,11.00
2022-11-13T08:01:04.270Z,11.90
2022-11-13T08:03:32.787Z,10.60
2022-11-13T08:06:07.549Z,11.75
2022-11-13T08:08:36.197Z,11.85
2022-11-13T08:11:09.320Z,11.40
2022-11-13T08:13:38.089Z,11.65
2022-11-13T08:16:07.022Z,12.23
2022-11-13T08:18:35.697Z,11.00
2022-11-13T08:21:12.018Z,10.93
2022-11-13T08:23:43.049Z,10.68
2022-11-13T08:26:11.568Z,11.52
2022-11-13T08:28:39.257Z,12.40
2022-11-13T08:31:12.107Z,12.15
2022-11-13T08:33:39.906Z,12.43
2022-11-13T08:36:10.501Z,12.05
2022-11-13T08:38:38.893Z,11.15
2022-11-13T08:41:09.676Z,12.15
2022-11-13T08:43:37.556Z,11.52
2022-11-13T08:46:05.578Z,11.00
2022-11-13T08:48:33.307Z,10.10
2022-11-13T08:51:01.000Z,11.48
2022-11-13T08:53:30.181Z,11.07
2022-11-13T08:56:01.371Z,10.40
2022-11-13T08:58:34.406Z,11.93
2022-11-13T09:01:02.426Z,12.45
2022-11-13T09:03:30.271Z,11.50
2022-11-13T09:05:58.098Z,11.00
2022-11-13T09:08:26.198Z,11.35
2022-11-13T09:10:55.556Z,10.20
2022-11-13T09:13:23.349Z,11.25
2022-11-13T09:15:51.102Z,9.60
2022-11-13T09:18:18.761Z,10.43
2022-11-13T09:20:47.233Z,10.25
2022-11-13T09:23:14.894Z,9.02
2022-11-13T09:25:42.695Z,9.23
2022-11-13T09:28:12.103Z,8.63
2022-11-13T09:30:40.884Z,8.63
2022-11-13T09:33:08.792Z,9.65
2022-11-13T09:35:36.604Z,8.87
2022-11-13T09:38:11.291Z,9.07
2022-11-13T09:40:44.405Z,8.90
2022-11-13T09:43:24.487Z,8.70
2022-11-13T09:45:55.521Z,8.90
2022-11-13T09:48:30.197Z,10.20
2022-11-13T09:51:00.636Z,10.10
2022-11-13T09:53:34.077Z,7.50
2022-11-13T09:56:09.284Z,7.93
2022-11-13T09:58:47.738Z,7.97
2022-11-13T10:01:23.734Z,8.27
2022-11-13T10:04:03.374Z,8.23
2022-11-13T10:06:45.028Z,7.40
2022-11-13T10:09:23.288Z,7.33
2022-11-13T10:11:56.170Z,8.37
2022-11-13T10:14:30.512Z,8.70
2022-11-13T10:17:03.855Z,8.00
2022-11-13T10:19:37.605Z,8.20
2022-11-13T10:22:32.190Z,7.30
2022-11-13T10:25:10.625Z,7.90
2022-11-13T10:27:39.144Z,8.50
2022-11-13T10:30:14.759Z,8.80
2022-11-13T10:32:43.269Z,8.70
2022-11-13T10:35:27.222Z,9.10
2022-11-13T10:38:07.527Z,8.40
2022-11-13T10:40:37.266Z,7.73
2022-11-13T10:43:15.675Z,8.53
2022-11-13T10:45:56.219Z,8.87
2022-11-13T10:48:27.003Z,8.80
2022-11-13T10:50:57.619Z,8.57
2022-11-13T10:53:27.590Z,7.40
2022-11-13T10:55:58.623Z,8.00
2022-11-13T10:58:26.983Z,8.20
2022-11-13T11:00:56.262Z,8.60
2022-11-13T11:03:27.008Z,9.13
2022-11-13T11:06:00.517Z,8.20
2022-11-13T11:08:32.527Z,8.17
2022-11-13T11:11:34.437Z,8.20
2022-11-13T11:14:20.948Z,8.83
2022-11-13T11:16:53.009Z,8.83
2022-11-13T11:19:26.102Z,8.47
2022-11-13T11:22:01.314Z,8.47
2022-11-13T11:24:35.910Z,8.90
2022-11-13T11:27:09.541Z,10.30
2022-11-13T11:29:42.362Z,10.13
2022-11-13T11:32:17.879Z,10.27
2022-11-13T11:34:53.707Z,9.35
2022-11-13T11:37:29.084Z,10.93
2022-11-13T11:40:03.082Z,10.95
2022-11-13T11:42:37.961Z,10.40
2022-11-13T11:45:16.764Z,10.73
2022-11-13T11:47:46.043Z,10.43
2022-11-13T11:50:16.160Z,10.70
2022-11-13T11:52:57.719Z,10.80
2022-11-13T11:55:59.967Z,11.05
2022-11-13T11:58:52.559Z,14.18
2022-11-13T12:01:32.955Z,10.60
2022-11-13T12:04:13.675Z,10.73
2022-11-13T12:06:52.573Z,10.25
2022-11-13T12:09:28.433Z,9.30
2022-11-13T12:12:04.011Z,9.60
2022-11-13T12:14:42.613Z,11.07
2022-11-13T12:17:31.693Z,10.43
2022-11-13T12:20:11.172Z,10.63
2022-11-13T12:22:47.205Z,11.20
2022-11-13T12:25:24.174Z,9.88
2022-11-13T12:27:58.720Z,9.57
2022-11-13T12:30:37.877Z,9.90
2022-11-13T12:33:19.237Z,10.38
2022-11-13T12:35:52.880Z,9.05
2022-11-13T12:38:34.867Z,9.45
2022-11-13T12:41:10.666Z,10.00
2022-11-13T12:44:07.759Z,9.93
2022-11-13T12:46:38.292Z,10.35
2022-11-13T12:49:25.360Z,9.88
2022-11-13T12:51:57.433Z,10.57
2022-11-13T12:54:33.037Z,8.73
2022-11-13T12:57:20.953Z,9.07
2022-11-13T12:59:52.746Z,8.57
2022-11-13T13:02:34.335Z,8.98
2022-11-13T13:05:15.083Z,10.20
2022-11-13T13:08:05.831Z,10.57
2022-11-13T13:10:43.157Z,11.50
2022-11-13T13:13:24.276Z,9.90
2022-11-13T13:15:57.076Z,11.35
2022-11-13T13:18:30.983Z,10.63
2022-11-13T13:21:03.041Z,10.52
2022-11-13T13:23:36.015Z,10.43
2022-11-13T13:26:06.058Z,9.80
2022-11-13T13:28:34.719Z,9.70
2022-11-13T13:31:09.527Z,10.40
2022-11-13T13:33:51.193Z,10.68
2022-11-13T13:36:30.853Z,9.70
2022-11-13T13:39:09.392Z,9.90
2022-11-13T13:41:52.431Z,10.10
2022-11-13T13:44:36.236Z,9.48
2022-11-13T13:47:08.303Z,9.60
2022-11-13T13:49:37.624Z,9.57
2022-11-13T13:52:06.154Z,10.45
2022-11-13T13:54:37.195Z,9.90
2022-11-13T13:57:04.937Z,10.85
2022-11-13T13:59:35.320Z,9.55
2022-11-13T14:02:05.051Z,9.95
2022-11-13T14:04:35.961Z,10.60
2022-11-13T14:07:04.459Z,10.38
2022-11-13T14:09:32.470Z,9.85
2022-11-13T14:12:09.226Z,10.48
2022-11-13T14:14:40.510Z,9.10
2022-11-13T14:17:11.167Z,9.35
2022-11-13T14:19:39.570Z,9.40
2022-11-13T14:22:11.521Z,9.20
2022-11-13T14:24:47.271Z,10.70
2022-11-13T14:27:20.461Z,11.27
2022-11-13T14:29:50.481Z,10.48
2022-11-13T14:32:22.276Z,10.75
2022-11-13T14:34:51.725Z,10.85
2022-11-13T14:37:28.971Z,10.57
2022-11-13T14:39:59.553Z,10.35
2022-11-13T14:42:36.666Z,10.10
2022-11-13T14:45:15.461Z,9.52
2022-11-13T14:47:43.597Z,9.55
2022-11-13T14:50:22.770Z,9.75
2022-11-13T14:52:58.735Z,10.32
2022-11-13T14:55:28.565Z,10.63
2022-11-13T14:57:57.735Z,10.47
2022-11-13T15:00:31.524Z,10.87
2022-11-13T15:03:00.362Z,11.50
2022-11-13T15:05:28.683Z,10.10
2022-11-13T15:07:57.433Z,11.40
2022-11-13T15:10:27.326Z,12.00
2022-11-13T15:12:56.927Z,11.98
2022-11-13T15:15:28.815Z,11.50
2022-11-13T15:17:57.115Z,10.50
2022-11-13T15:20:27.400Z,12.30
2022-11-13T15:22:56.672Z,12.85
2022-11-13T15:25:25.738Z,11.93
2022-11-13T15:27:53.719Z,11.18
2022-11-13T15:30:22.843Z,10.13
2022-11-13T15:32:53.993Z,10.93
2022-11-13T15:35:22.604Z,11.13
2022-11-13T15:37:50.435Z,10.82
2022-11-13T15:40:18.777Z,10.35
2022-11-13T15:42:46.888Z,9.88
2022-11-13T15:45:16.678Z,10.70
2022-11-13T15:47:45.863Z,11.05
2022-11-13T15:50:15.203Z,10.45
2022-11-13T15:52:46.499Z,10.35
2022-11-13T15:55:25.762Z,10.50
2022-11-13T15:57:54.177Z,11.27
2022-11-13T16:00:26.180Z,10.60
2022-11-13T16:02:56.771Z,10.38
2022-11-13T16:05:25.952Z,10.40
2022-11-13T16:07:54.818Z,9.95
2022-11-13T16:10:25.092Z,10.60
2022-11-13T16:12:53.669Z,9.73
2022-11-13T16:15:21.652Z,10.80
2022-11-13T16:17:52.142Z,11.75
2022-11-13T16:20:21.304Z,11.95
2022-11-13T16:22:49.144Z,11.10
2022-11-13T16:25:19.113Z,11.55
2022-11-13T16:27:47.271Z,13.45
2022-11-13T16:30:16.817Z,11.77
2022-11-13T16:32:44.539Z,13.40
2022-11-13T16:35:15.709Z,13.65
2022-11-13T16:37:44.841Z,13.35
2022-11-13T16:40:22.774Z,13.02
2022-11-13T16:42:51.634Z,13.68
2022-11-13T16:45:20.533Z,11.70
2022-11-13T16:47:49.790Z,13.35
2022-11-13T16:50:19.697Z,12.90
2022-11-13T16:52:48.799Z,12.85
2022-11-13T16:55:19.624Z,13.45
2022-11-13T16:57:47.348Z,13.18
2022-11-13T17:00:17.410Z,14.30
2022-11-13T17:02:45.443Z,12.90
2022-11-13T17:05:14.692Z,13.38
2022-11-13T17:07:42.772Z,13.65
2022-11-13T17:10:30.965Z,14.15
2022-11-13T17:13:00.206Z,14.50
2022-11-13T17:15:27.996Z,13.88
2022-11-13T17:17:58.524Z,12.82
2022-11-13T17:20:26.573Z,13.82
2022-11-13T17:22:54.231Z,13.60
2022-11-13T17:25:26.556Z,13.40
2022-11-13T17:27:54.425Z,12.85
2022-11-13T17:30:22.110Z,13.85
2022-11-13T17:32:49.842Z,12.85
2022-11-13T17:35:17.861Z,13.60
2022-11-13T17:37:45.705Z,13.70
2022-11-13T17:40:13.513Z,13.40
2022-11-13T17:42:43.114Z,13.30
2022-11-13T17:45:11.557Z,13.30
2022-11-13T17:47:39.450Z,13.05
2022-11-13T17:50:08.143Z,13.48
2022-11-13T17:52:35.898Z,15.80
2022-11-13T17:55:06.264Z,14.80
2022-11-13T17:57:34.331Z,13.65
2022-11-13T18:00:03.646Z,14.27
2022-11-13T18:02:31.427Z,14.32
2022-11-13T18:05:01.251Z,13.50
2022-11-13T18:07:29.739Z,14.40
2022-11-13T18:09:57.711Z,15.02
2022-11-13T18:12:25.458Z,15.43
2022-11-13T18:14:53.351Z,14.10
2022-11-13T18:17:23.500Z,15.55
2022-11-13T18:19:54.765Z,16.73
2022-11-13T18:22:26.344Z,14.73
2022-11-13T18:24:55.490Z,15.20
2022-11-13T18:27:23.236Z,15.15
2022-11-13T18:29:50.965Z,17.17
2022-11-13T18:32:18.732Z,17.52
2022-11-13T18:34:47.785Z,15.43
2022-11-13T18:37:15.466Z,15.75
2022-11-13T18:39:43.287Z,15.68
2022-11-13T18:42:11.019Z,15.60
2022-11-13T18:44:39.152Z,15.50
2022-11-13T18:47:07.221Z,17.27
2022-11-13T18:49:34.922Z,16.65
2022-11-13T18:52:04.048Z,17.15
2022-11-13T18:54:31.815Z,15.30
2022-11-13T18:56:59.883Z,16.48
2022-11-13T18:59:27.688Z,15.93
2022-11-13T19:01:55.483Z,15.05
2022-11-13T19:04:24.141Z,16.70
2022-11-13T19:06:52.392Z,17.60
2022-11-13T19:09:22.718Z,17.42
2022-11-13T19:11:51.316Z,17.88
2022-11-13T19:14:19.725Z,19.08
2022-11-13T19:16:48.161Z,20.17
2022-11-13T19:19:18.768Z,18.73
2022-11-13T19:21:47.781Z,18.95
2022-11-13T19:24:15.864Z,18.65
2022-11-13T19:26:46.250Z,20.63
2022-11-13T19:29:13.993Z,20.67
2022-11-13T19:31:44.672Z,20.25
2022-11-13T19:34:12.439Z,19.60
2022-11-13T19:36:42.562Z,18.67
2022-11-13T19:39:13.372Z,20.02
2022-11-13T19:41:42.370Z,19.00
2022-11-13T19:44:12.410Z,21.15
2022-11-13T19:46:42.482Z,19.35
2022-11-13T19:49:10.270Z,19.40
2022-11-13T19:51:38.644Z,20.15
2022-11-13T19:54:06.387Z,18.95
2022-11-13T19:56:35.229Z,18.83
2022-11-13T19:59:02.965Z,19.52
2022-11-13T20:01:32.961Z,21.23
2022-11-13T20:04:03.293Z,20.95
2022-11-13T20:06:34.260Z,19.05
2022-11-13T20:09:03.457Z,21.33
2022-11-13T20:11:32.789Z,19.98
2022-11-13T20:14:01.130Z,19.83
2022-11-13T20:16:30.123Z,20.40
2022-11-13T20:18:59.697Z,19.98
2022-11-13T20:21:28.736Z,21.08
2022-11-13T20:23:58.022Z,19.40
2022-11-13T20:26:25.839Z,20.58
2022-11-13T20:28:53.531Z,20.50
2022-11-13T20:31:23.291Z,21.73
2022-11-13T20:33:53.054Z,20.00
2022-11-13T20:36:23.917Z,18.60
2022-11-13T20:38:54.783Z,19.88
2022-11-13T20:41:24.005Z,20.02
2022-11-13T20:43:52.564Z,20.88
2022-11-13T20:46:22.037Z,19.27
2022-11-13T20:48:49.827Z,18.60
2022-11-13T20:51:22.770Z,20.38
2022-11-13T20:53:53.143Z,19.13
2022-11-13T20:56:22.800Z,18.88
2022-11-13T20:58:51.592Z,18.80
2022-11-13T21:01:22.219Z,18.50
2022-11-13T21:03:50.666Z,17.90
2022-11-13T21:06:20.086Z,18.02
2022-11-13T21:08:48.490Z,17.88
2022-11-13T21:11:21.953Z,17.73
2022-11-13T21:13:51.235Z,17.38
2022-11-13T21:16:19.147Z,16.50
2022-11-13T21:18:47.477Z,16.65
2022-11-13T21:21:18.793Z,16.65
2022-11-13T21:23:47.819Z,16.38
2022-11-13T21:26:17.275Z,15.05
2022-11-13T21:28:45.434Z,14.57
2022-11-13T21:31:15.974Z,14.98
2022-11-13T21:33:45.839Z,15.18
2022-11-13T21:36:15.477Z,15.23
2022-11-13T21:38:43.698Z,14.93
2022-11-13T21:41:25.760Z,15.15
2022-11-13T21:43:58.626Z,13.25
2022-11-13T21:46:30.218Z,13.70
2022-11-13T21:48:59.698Z,14.02
2022-11-13T21:51:27.602Z,13.50
2022-11-13T21:53:55.746Z,13.73
2022-11-13T21:56:24.434Z,13.95
2022-11-13T21:58:52.460Z,12.88
2022-11-13T22:01:23.595Z,13.75
2022-11-13T22:03:51.575Z,13.90
2022-11-13T22:06:21.478Z,13.38
2022-11-13T22:08:56.090Z,12.75
2022-11-13T22:11:24.708Z,13.70
2022-11-13T22:13:53.092Z,15.05
2022-11-13T22:16:22.801Z,12.27
2022-11-13T22:18:53.638Z,13.77
2022-11-13T22:21:21.787Z,12.40
2022-11-13T22:23:49.916Z,13.32
2022-11-13T22:26:18.980Z,11.45
2022-11-13T22:28:47.964Z,12.18
2022-11-13T22:31:17.559Z,12.18
2022-11-13T22:33:49.699Z,12.30
2022-11-13T22:36:22.426Z,12.70
2022-11-13T22:38:50.593Z,12.35
2022-11-13T22:41:22.961Z,11.73
2022-11-13T22:43:53.072Z,11.38
2022-11-13T22:46:22.560Z,11.65
2022-11-13T22:48:53.034Z,10.63
2022-11-13T22:51:22.512Z,11.27
2022-11-13T22:53:52.006Z,11.35
2022-11-13T22:56:20.775Z,10.77
2022-11-13T22:58:48.816Z,11.52
2022-11-13T23:01:18.583Z,10.90
2022-11-13T23:03:47.770Z,11.15
2022-11-13T23:06:18.632Z,10.00
2022-11-13T23:08:46.690Z,12.05
2022-11-13T23:11:16.932Z,10.63
2022-11-13T23:13:46.316Z,10.55
2022-11-13T23:16:14.809Z,10.63
2022-11-13T23:18:42.893Z,11.40
2022-11-13T23:21:11.635Z,10.95
2022-11-13T23:23:41.396Z,10.68
2022-11-13T23:26:10.774Z,11.50
2022-11-13T23:28:39.231Z,12.18
2022-11-13T23:31:07.975Z,11.40
2022-11-13T23:33:36.193Z,11.57
2022-11-13T23:36:04.029Z,11.40
2022-11-13T23:38:32.215Z,11.52
2022-11-13T23:41:02.303Z,10.82
2022-11-13T23:44:01.639Z,10.82
2022-11-13T23:46:18.601Z,11.68
2022-11-13T23:48:46.362Z,12.55
2022-11-13T23:51:14.034Z,12.50
2022-11-13T23:53:41.733Z,11.07
2022-11-13T23:56:11.789Z,11.35
2022-11-13T23:58:39.512Z,9.60
